sensor_id;sensor_type;location;lat;lon;timestamp;P1;durP1;ratioP1;P2;durP2;ratioP2
22646;SDS011;11490;42.726;23.268;2023-02-13T00:00:58;34.65;;;18.55;;
22646;SDS011;11490;42.726;23.268;2023-02-13T00:03:24;27.30;;;17.52;;
22646;SDS011;11490;42.726;23.268;2023-02-13T00:05:49;35.45;;;19.35;;
22646;SDS011;11490;42.726;23.268;2023-02-13T00:08:14;39.92;;;16.15;;
22646;SDS011;11490;42.726;23.268;2023-02-13T00:10:40;25.85;;;16.55;;
22646;SDS011;11490;42.726;23.268;2023-02-13T00:13:05;28.73;;;15.63;;
22646;SDS011;11490;42.726;23.268;2023-02-13T00:15:31;35.90;;;16.58;;
22646;SDS011;11490;42.726;23.268;2023-02-13T00:17:56;39.13;;;21.48;;
22646;SDS011;11490;42.726;23.268;2023-02-13T00:20:22;26.27;;;17.30;;
22646;SDS011;11490;42.726;23.268;2023-02-13T00:22:47;31.92;;;17.95;;
22646;SDS011;11490;42.726;23.268;2023-02-13T00:25:12;37.00;;;19.48;;
22646;SDS011;11490;42.726;23.268;2023-02-13T00:27:38;40.00;;;18.98;;
22646;SDS011;11490;42.726;23.268;2023-02-13T00:30:03;36.42;;;18.02;;
22646;SDS011;11490;42.726;23.268;2023-02-13T00:32:29;31.85;;;16.55;;
22646;SDS011;11490;42.726;23.268;2023-02-13T00:34:55;34.75;;;17.10;;
22646;SDS011;11490;42.726;23.268;2023-02-13T00:37:21;39.80;;;16.00;;
22646;SDS011;11490;42.726;23.268;2023-02-13T00:39:46;23.17;;;15.80;;
22646;SDS011;11490;42.726;23.268;2023-02-13T00:42:11;26.73;;;15.93;;
22646;SDS011;11490;42.726;23.268;2023-02-13T00:44:37;29.13;;;18.10;;
22646;SDS011;11490;42.726;23.268;2023-02-13T00:47:02;30.60;;;15.75;;
22646;SDS011;11490;42.726;23.268;2023-02-13T00:49:28;27.55;;;14.90;;
22646;SDS011;11490;42.726;23.268;2023-02-13T00:51:53;42.22;;;19.13;;
22646;SDS011;11490;42.726;23.268;2023-02-13T00:54:18;34.65;;;19.15;;
22646;SDS011;11490;42.726;23.268;2023-02-13T00:56:44;29.65;;;18.83;;
22646;SDS011;11490;42.726;23.268;2023-02-13T00:59:09;36.40;;;19.25;;
22646;SDS011;11490;42.726;23.268;2023-02-13T01:01:34;32.17;;;17.23;;
22646;SDS011;11490;42.726;23.268;2023-02-13T01:04:00;32.70;;;17.23;;
22646;SDS011;11490;42.726;23.268;2023-02-13T01:06:25;31.63;;;19.30;;
22646;SDS011;11490;42.726;23.268;2023-02-13T01:08:51;42.07;;;20.63;;
22646;SDS011;11490;42.726;23.268;2023-02-13T01:11:16;33.85;;;18.08;;
22646;SDS011;11490;42.726;23.268;2023-02-13T01:13:43;35.37;;;21.83;;
22646;SDS011;11490;42.726;23.268;2023-02-13T01:16:09;33.28;;;19.40;;
22646;SDS011;11490;42.726;23.268;2023-02-13T01:18:34;21.40;;;15.20;;
22646;SDS011;11490;42.726;23.268;2023-02-13T01:21:04;33.22;;;17.55;;
22646;SDS011;11490;42.726;23.268;2023-02-13T01:23:33;34.55;;;18.55;;
22646;SDS011;11490;42.726;23.268;2023-02-13T01:26:04;43.22;;;20.95;;
22646;SDS011;11490;42.726;23.268;2023-02-13T01:28:31;31.08;;;17.52;;
22646;SDS011;11490;42.726;23.268;2023-02-13T01:30:57;29.02;;;16.38;;
22646;SDS011;11490;42.726;23.268;2023-02-13T01:33:23;55.13;;;22.67;;
22646;SDS011;11490;42.726;23.268;2023-02-13T01:35:49;83.73;;;35.60;;
22646;SDS011;11490;42.726;23.268;2023-02-13T01:38:15;64.05;;;31.95;;
22646;SDS011;11490;42.726;23.268;2023-02-13T01:40:47;46.70;;;24.43;;
22646;SDS011;11490;42.726;23.268;2023-02-13T01:43:14;47.50;;;25.10;;
22646;SDS011;11490;42.726;23.268;2023-02-13T01:45:40;58.65;;;22.98;;
22646;SDS011;11490;42.726;23.268;2023-02-13T01:48:13;44.05;;;20.15;;
22646;SDS011;11490;42.726;23.268;2023-02-13T01:50:48;35.23;;;17.10;;
22646;SDS011;11490;42.726;23.268;2023-02-13T01:53:23;31.02;;;17.90;;
22646;SDS011;11490;42.726;23.268;2023-02-13T01:55:56;33.97;;;19.75;;
22646;SDS011;11490;42.726;23.268;2023-02-13T01:58:28;46.65;;;19.10;;
22646;SDS011;11490;42.726;23.268;2023-02-13T02:00:57;41.95;;;20.38;;
22646;SDS011;11490;42.726;23.268;2023-02-13T02:03:28;32.08;;;21.25;;
22646;SDS011;11490;42.726;23.268;2023-02-13T02:05:57;29.92;;;17.50;;
22646;SDS011;11490;42.726;23.268;2023-02-13T02:08:25;24.80;;;14.60;;
22646;SDS011;11490;42.726;23.268;2023-02-13T02:10:51;29.42;;;17.23;;
22646;SDS011;11490;42.726;23.268;2023-02-13T02:13:20;30.02;;;18.85;;
22646;SDS011;11490;42.726;23.268;2023-02-13T02:15:46;44.80;;;22.27;;
22646;SDS011;11490;42.726;23.268;2023-02-13T02:18:17;51.20;;;22.05;;
22646;SDS011;11490;42.726;23.268;2023-02-13T02:37:38;33.73;;;20.40;;
22646;SDS011;11490;42.726;23.268;2023-02-13T02:45:51;54.65;;;26.33;;
22646;SDS011;11490;42.726;23.268;2023-02-13T02:48:21;77.70;;;31.80;;
22646;SDS011;11490;42.726;23.268;2023-02-13T02:53:43;83.70;;;35.00;;
22646;SDS011;11490;42.726;23.268;2023-02-13T02:58:54;76.40;;;31.80;;
22646;SDS011;11490;42.726;23.268;2023-02-13T03:01:42;52.20;;;27.33;;
22646;SDS011;11490;42.726;23.268;2023-02-13T03:04:43;33.87;;;21.33;;
22646;SDS011;11490;42.726;23.268;2023-02-13T03:07:31;46.27;;;23.10;;
22646;SDS011;11490;42.726;23.268;2023-02-13T03:09:58;64.73;;;26.57;;
22646;SDS011;11490;42.726;23.268;2023-02-13T03:15:35;36.17;;;18.83;;
22646;SDS011;11490;42.726;23.268;2023-02-13T03:18:28;32.00;;;14.63;;
22646;SDS011;11490;42.726;23.268;2023-02-13T03:21:16;24.60;;;15.13;;
22646;SDS011;11490;42.726;23.268;2023-02-13T03:24:13;34.63;;;16.77;;
22646;SDS011;11490;42.726;23.268;2023-02-13T03:26:49;46.08;;;18.13;;
22646;SDS011;11490;42.726;23.268;2023-02-13T03:35:01;28.80;;;15.33;;
22646;SDS011;11490;42.726;23.268;2023-02-13T03:38:00;34.60;;;17.10;;
22646;SDS011;11490;42.726;23.268;2023-02-13T03:43:28;40.17;;;20.90;;
22646;SDS011;11490;42.726;23.268;2023-02-13T03:46:01;30.27;;;15.87;;
22646;SDS011;11490;42.726;23.268;2023-02-13T03:48:29;26.33;;;13.40;;
22646;SDS011;11490;42.726;23.268;2023-02-13T03:51:22;31.57;;;15.70;;
22646;SDS011;11490;42.726;23.268;2023-02-13T03:53:57;32.10;;;17.33;;
22646;SDS011;11490;42.726;23.268;2023-02-13T03:56:25;22.58;;;17.35;;
22646;SDS011;11490;42.726;23.268;2023-02-13T03:59:17;36.23;;;16.67;;
22646;SDS011;11490;42.726;23.268;2023-02-13T04:07:09;43.13;;;20.03;;
22646;SDS011;11490;42.726;23.268;2023-02-13T04:09:53;33.87;;;17.33;;
22646;SDS011;11490;42.726;23.268;2023-02-13T04:18:05;88.63;;;28.93;;
22646;SDS011;11490;42.726;23.268;2023-02-13T04:20:35;62.43;;;27.43;;
22646;SDS011;11490;42.726;23.268;2023-02-13T04:23:04;50.47;;;25.83;;
22646;SDS011;11490;42.726;23.268;2023-02-13T04:25:34;73.73;;;22.13;;
22646;SDS011;11490;42.726;23.268;2023-02-13T04:28:02;46.23;;;22.90;;
22646;SDS011;11490;42.726;23.268;2023-02-13T04:30:27;58.43;;;22.47;;
22646;SDS011;11490;42.726;23.268;2023-02-13T04:32:53;49.30;;;22.33;;
22646;SDS011;11490;42.726;23.268;2023-02-13T04:35:18;46.97;;;21.27;;
22646;SDS011;11490;42.726;23.268;2023-02-13T04:37:44;56.53;;;24.43;;
22646;SDS011;11490;42.726;23.268;2023-02-13T04:40:09;41.33;;;22.60;;
22646;SDS011;11490;42.726;23.268;2023-02-13T04:42:35;41.30;;;19.10;;
22646;SDS011;11490;42.726;23.268;2023-02-13T04:45:00;31.33;;;19.70;;
22646;SDS011;11490;42.726;23.268;2023-02-13T04:47:25;44.10;;;18.87;;
22646;SDS011;11490;42.726;23.268;2023-02-13T04:49:51;42.27;;;18.23;;
22646;SDS011;11490;42.726;23.268;2023-02-13T04:52:16;36.43;;;20.77;;
22646;SDS011;11490;42.726;23.268;2023-02-13T04:54:42;34.00;;;18.80;;
22646;SDS011;11490;42.726;23.268;2023-02-13T04:57:07;29.20;;;16.87;;
22646;SDS011;11490;42.726;23.268;2023-02-13T04:59:33;25.10;;;15.67;;
22646;SDS011;11490;42.726;23.268;2023-02-13T05:01:58;107.20;;;38.87;;
22646;SDS011;11490;42.726;23.268;2023-02-13T05:04:24;72.10;;;32.57;;
22646;SDS011;11490;42.726;23.268;2023-02-13T05:06:50;42.23;;;19.73;;
22646;SDS011;11490;42.726;23.268;2023-02-13T05:09:16;38.83;;;17.87;;
22646;SDS011;11490;42.726;23.268;2023-02-13T05:11:41;25.08;;;15.15;;
22646;SDS011;11490;42.726;23.268;2023-02-13T05:14:08;30.33;;;14.47;;
22646;SDS011;11490;42.726;23.268;2023-02-13T05:16:34;23.10;;;16.67;;
22646;SDS011;11490;42.726;23.268;2023-02-13T05:19:00;84.73;;;29.80;;
22646;SDS011;11490;42.726;23.268;2023-02-13T05:21:25;41.90;;;19.40;;
22646;SDS011;11490;42.726;23.268;2023-02-13T05:24:09;65.27;;;23.27;;
22646;SDS011;11490;42.726;23.268;2023-02-13T05:26:34;29.60;;;17.73;;
22646;SDS011;11490;42.726;23.268;2023-02-13T05:29:00;39.10;;;16.77;;
22646;SDS011;11490;42.726;23.268;2023-02-13T05:31:47;27.87;;;13.37;;
22646;SDS011;11490;42.726;23.268;2023-02-13T05:34:19;32.50;;;17.27;;
22646;SDS011;11490;42.726;23.268;2023-02-13T05:36:46;52.07;;;24.17;;
22646;SDS011;11490;42.726;23.268;2023-02-13T05:39:12;33.73;;;19.03;;
22646;SDS011;11490;42.726;23.268;2023-02-13T05:41:37;35.78;;;18.83;;
22646;SDS011;11490;42.726;23.268;2023-02-13T05:44:03;39.47;;;18.50;;
22646;SDS011;11490;42.726;23.268;2023-02-13T05:46:29;41.27;;;21.80;;
22646;SDS011;11490;42.726;23.268;2023-02-13T05:48:54;39.57;;;23.03;;
22646;SDS011;11490;42.726;23.268;2023-02-13T05:51:20;40.57;;;24.33;;
22646;SDS011;11490;42.726;23.268;2023-02-13T05:53:45;65.40;;;28.80;;
22646;SDS011;11490;42.726;23.268;2023-02-13T05:56:10;56.17;;;27.42;;
22646;SDS011;11490;42.726;23.268;2023-02-13T05:58:36;50.83;;;25.33;;
22646;SDS011;11490;42.726;23.268;2023-02-13T06:01:01;87.57;;;33.50;;
22646;SDS011;11490;42.726;23.268;2023-02-13T06:03:28;86.53;;;31.60;;
22646;SDS011;11490;42.726;23.268;2023-02-13T06:05:54;50.20;;;24.15;;
22646;SDS011;11490;42.726;23.268;2023-02-13T06:08:20;55.33;;;27.65;;
22646;SDS011;11490;42.726;23.268;2023-02-13T06:10:46;62.78;;;28.90;;
22646;SDS011;11490;42.726;23.268;2023-02-13T06:13:12;70.07;;;27.58;;
22646;SDS011;11490;42.726;23.268;2023-02-13T06:15:38;52.87;;;28.33;;
22646;SDS011;11490;42.726;23.268;2023-02-13T06:18:04;54.80;;;26.07;;
22646;SDS011;11490;42.726;23.268;2023-02-13T06:20:29;39.97;;;22.67;;
22646;SDS011;11490;42.726;23.268;2023-02-13T06:22:56;47.23;;;24.67;;
22646;SDS011;11490;42.726;23.268;2023-02-13T06:25:22;39.13;;;22.93;;
22646;SDS011;11490;42.726;23.268;2023-02-13T06:27:47;100.57;;;47.90;;
22646;SDS011;11490;42.726;23.268;2023-02-13T06:30:13;70.47;;;41.03;;
22646;SDS011;11490;42.726;23.268;2023-02-13T06:32:39;39.03;;;25.03;;
22646;SDS011;11490;42.726;23.268;2023-02-13T06:35:05;48.07;;;26.97;;
22646;SDS011;11490;42.726;23.268;2023-02-13T06:37:31;57.97;;;29.50;;
22646;SDS011;11490;42.726;23.268;2023-02-13T06:39:57;73.70;;;34.47;;
22646;SDS011;11490;42.726;23.268;2023-02-13T06:42:22;62.92;;;32.22;;
22646;SDS011;11490;42.726;23.268;2023-02-13T06:44:48;78.28;;;38.42;;
22646;SDS011;11490;42.726;23.268;2023-02-13T06:47:13;63.67;;;36.00;;
22646;SDS011;11490;42.726;23.268;2023-02-13T06:49:38;58.22;;;31.80;;
22646;SDS011;11490;42.726;23.268;2023-02-13T06:52:04;74.53;;;38.35;;
22646;SDS011;11490;42.726;23.268;2023-02-13T06:54:32;87.57;;;43.80;;
22646;SDS011;11490;42.726;23.268;2023-02-13T06:56:58;80.77;;;41.47;;
22646;SDS011;11490;42.726;23.268;2023-02-13T06:59:32;104.37;;;47.77;;
22646;SDS011;11490;42.726;23.268;2023-02-13T07:01:58;79.47;;;44.13;;
22646;SDS011;11490;42.726;23.268;2023-02-13T07:04:23;59.15;;;35.83;;
22646;SDS011;11490;42.726;23.268;2023-02-13T07:06:51;68.38;;;36.13;;
22646;SDS011;11490;42.726;23.268;2023-02-13T07:09:19;165.85;;;55.13;;
22646;SDS011;11490;42.726;23.268;2023-02-13T07:11:44;149.50;;;57.22;;
22646;SDS011;11490;42.726;23.268;2023-02-13T07:14:10;51.70;;;28.75;;
22646;SDS011;11490;42.726;23.268;2023-02-13T07:16:35;59.45;;;25.48;;
22646;SDS011;11490;42.726;23.268;2023-02-13T07:19:01;94.82;;;41.63;;
22646;SDS011;11490;42.726;23.268;2023-02-13T07:21:26;51.88;;;29.35;;
22646;SDS011;11490;42.726;23.268;2023-02-13T07:23:51;72.60;;;30.38;;
22646;SDS011;11490;42.726;23.268;2023-02-13T07:26:17;49.08;;;26.35;;
22646;SDS011;11490;42.726;23.268;2023-02-13T07:28:42;54.30;;;26.02;;
22646;SDS011;11490;42.726;23.268;2023-02-13T07:31:08;42.53;;;23.83;;
22646;SDS011;11490;42.726;23.268;2023-02-13T07:33:34;47.78;;;28.45;;
22646;SDS011;11490;42.726;23.268;2023-02-13T07:35:59;46.38;;;26.25;;
22646;SDS011;11490;42.726;23.268;2023-02-13T07:38:27;53.75;;;25.30;;
22646;SDS011;11490;42.726;23.268;2023-02-13T07:40:54;47.65;;;24.13;;
22646;SDS011;11490;42.726;23.268;2023-02-13T07:43:21;44.47;;;21.52;;
22646;SDS011;11490;42.726;23.268;2023-02-13T07:45:47;40.15;;;26.58;;
22646;SDS011;11490;42.726;23.268;2023-02-13T07:48:12;50.67;;;27.13;;
22646;SDS011;11490;42.726;23.268;2023-02-13T07:50:37;52.33;;;26.40;;
22646;SDS011;11490;42.726;23.268;2023-02-13T07:53:03;43.33;;;22.67;;
22646;SDS011;11490;42.726;23.268;2023-02-13T07:55:28;37.00;;;21.63;;
22646;SDS011;11490;42.726;23.268;2023-02-13T07:57:58;54.97;;;23.75;;
22646;SDS011;11490;42.726;23.268;2023-02-13T08:00:27;44.97;;;23.95;;
22646;SDS011;11490;42.726;23.268;2023-02-13T08:02:52;40.38;;;19.17;;
22646;SDS011;11490;42.726;23.268;2023-02-13T08:05:18;37.08;;;18.55;;
22646;SDS011;11490;42.726;23.268;2023-02-13T08:07:43;40.45;;;19.35;;
22646;SDS011;11490;42.726;23.268;2023-02-13T08:10:10;29.80;;;18.10;;
22646;SDS011;11490;42.726;23.268;2023-02-13T08:12:55;35.20;;;17.40;;
22646;SDS011;11490;42.726;23.268;2023-02-13T08:15:21;31.60;;;17.23;;
22646;SDS011;11490;42.726;23.268;2023-02-13T08:17:46;30.92;;;17.33;;
22646;SDS011;11490;42.726;23.268;2023-02-13T08:20:11;50.72;;;22.20;;
22646;SDS011;11490;42.726;23.268;2023-02-13T08:22:39;39.83;;;22.13;;
22646;SDS011;11490;42.726;23.268;2023-02-13T08:25:15;42.83;;;20.48;;
22646;SDS011;11490;42.726;23.268;2023-02-13T08:27:46;28.15;;;18.42;;
22646;SDS011;11490;42.726;23.268;2023-02-13T08:30:12;49.60;;;21.92;;
22646;SDS011;11490;42.726;23.268;2023-02-13T08:32:39;34.70;;;20.00;;
22646;SDS011;11490;42.726;23.268;2023-02-13T08:35:04;57.13;;;21.02;;
22646;SDS011;11490;42.726;23.268;2023-02-13T08:37:30;42.13;;;22.10;;
22646;SDS011;11490;42.726;23.268;2023-02-13T08:39:55;35.80;;;19.92;;
22646;SDS011;11490;42.726;23.268;2023-02-13T08:42:21;37.30;;;19.67;;
22646;SDS011;11490;42.726;23.268;2023-02-13T08:44:46;39.80;;;18.42;;
22646;SDS011;11490;42.726;23.268;2023-02-13T08:47:12;39.67;;;16.90;;
22646;SDS011;11490;42.726;23.268;2023-02-13T08:49:37;26.77;;;16.77;;
22646;SDS011;11490;42.726;23.268;2023-02-13T08:52:05;31.48;;;16.58;;
22646;SDS011;11490;42.726;23.268;2023-02-13T08:54:32;30.45;;;17.38;;
22646;SDS011;11490;42.726;23.268;2023-02-13T08:57:00;34.92;;;16.92;;
22646;SDS011;11490;42.726;23.268;2023-02-13T09:02:44;26.42;;;14.70;;
22646;SDS011;11490;42.726;23.268;2023-02-13T09:05:11;30.35;;;16.70;;
22646;SDS011;11490;42.726;23.268;2023-02-13T09:07:39;33.85;;;17.00;;
22646;SDS011;11490;42.726;23.268;2023-02-13T09:10:35;33.88;;;16.25;;
22646;SDS011;11490;42.726;23.268;2023-02-13T09:16:51;31.88;;;17.27;;
22646;SDS011;11490;42.726;23.268;2023-02-13T09:23:35;27.80;;;15.60;;
22646;SDS011;11490;42.726;23.268;2023-02-13T09:26:12;33.97;;;16.27;;
22646;SDS011;11490;42.726;23.268;2023-02-13T09:28:53;34.75;;;19.05;;
22646;SDS011;11490;42.726;23.268;2023-02-13T09:31:19;32.85;;;16.30;;
22646;SDS011;11490;42.726;23.268;2023-02-13T09:33:45;32.42;;;16.90;;
22646;SDS011;11490;42.726;23.268;2023-02-13T09:36:13;32.17;;;17.40;;
22646;SDS011;11490;42.726;23.268;2023-02-13T09:38:43;27.13;;;15.38;;
22646;SDS011;11490;42.726;23.268;2023-02-13T09:41:13;35.67;;;16.85;;
22646;SDS011;11490;42.726;23.268;2023-02-13T09:46:31;33.03;;;16.00;;
22646;SDS011;11490;42.726;23.268;2023-02-13T09:49:00;33.70;;;17.50;;
22646;SDS011;11490;42.726;23.268;2023-02-13T09:51:31;34.00;;;17.08;;
22646;SDS011;11490;42.726;23.268;2023-02-13T09:54:04;28.63;;;14.23;;
22646;SDS011;11490;42.726;23.268;2023-02-13T10:01:50;33.15;;;15.75;;
22646;SDS011;11490;42.726;23.268;2023-02-13T10:04:33;29.42;;;16.30;;
22646;SDS011;11490;42.726;23.268;2023-02-13T10:13:21;27.33;;;15.20;;
22646;SDS011;11490;42.726;23.268;2023-02-13T10:22:18;27.73;;;14.63;;
22646;SDS011;11490;42.726;23.268;2023-02-13T10:28:10;27.05;;;13.38;;
22646;SDS011;11490;42.726;23.268;2023-02-13T10:30:47;23.98;;;14.25;;
22646;SDS011;11490;42.726;23.268;2023-02-13T10:33:28;25.88;;;14.05;;
22646;SDS011;11490;42.726;23.268;2023-02-13T10:41:37;31.38;;;15.25;;
22646;SDS011;11490;42.726;23.268;2023-02-13T10:50:47;29.73;;;13.85;;
22646;SDS011;11490;42.726;23.268;2023-02-13T10:57:24;20.75;;;13.75;;
22646;SDS011;11490;42.726;23.268;2023-02-13T10:59:55;19.85;;;11.90;;
22646;SDS011;11490;42.726;23.268;2023-02-13T11:02:24;25.58;;;12.63;;
22646;SDS011;11490;42.726;23.268;2023-02-13T11:07:44;30.23;;;13.43;;
22646;SDS011;11490;42.726;23.268;2023-02-13T11:10:24;22.02;;;12.10;;
22646;SDS011;11490;42.726;23.268;2023-02-13T11:12:51;26.25;;;14.70;;
22646;SDS011;11490;42.726;23.268;2023-02-13T11:15:24;22.65;;;12.15;;
22646;SDS011;11490;42.726;23.268;2023-02-13T11:18:51;25.35;;;11.55;;
22646;SDS011;11490;42.726;23.268;2023-02-13T11:21:31;17.90;;;10.90;;
22646;SDS011;11490;42.726;23.268;2023-02-13T11:24:01;21.92;;;12.70;;
22646;SDS011;11490;42.726;23.268;2023-02-13T11:26:41;21.58;;;11.55;;
22646;SDS011;11490;42.726;23.268;2023-02-13T11:29:29;24.10;;;11.13;;
22646;SDS011;11490;42.726;23.268;2023-02-13T11:32:19;18.52;;;9.98;;
22646;SDS011;11490;42.726;23.268;2023-02-13T11:34:49;15.73;;;9.88;;
22646;SDS011;11490;42.726;23.268;2023-02-13T11:37:21;17.60;;;9.88;;
22646;SDS011;11490;42.726;23.268;2023-02-13T11:39:56;19.23;;;10.20;;
22646;SDS011;11490;42.726;23.268;2023-02-13T11:42:42;17.00;;;8.25;;
22646;SDS011;11490;42.726;23.268;2023-02-13T11:45:22;11.25;;;7.25;;
22646;SDS011;11490;42.726;23.268;2023-02-13T11:47:49;14.93;;;8.40;;
22646;SDS011;11490;42.726;23.268;2023-02-13T11:50:26;16.63;;;8.88;;
22646;SDS011;11490;42.726;23.268;2023-02-13T11:52:55;15.13;;;8.23;;
22646;SDS011;11490;42.726;23.268;2023-02-13T11:55:27;13.23;;;8.20;;
22646;SDS011;11490;42.726;23.268;2023-02-13T12:00:45;9.43;;;6.05;;
22646;SDS011;11490;42.726;23.268;2023-02-13T12:08:35;14.25;;;8.75;;
22646;SDS011;11490;42.726;23.268;2023-02-13T12:11:14;11.48;;;7.68;;
22646;SDS011;11490;42.726;23.268;2023-02-13T12:13:45;11.73;;;6.80;;
22646;SDS011;11490;42.726;23.268;2023-02-13T12:18:48;11.18;;;6.78;;
22646;SDS011;11490;42.726;23.268;2023-02-13T12:26:51;11.65;;;6.50;;
22646;SDS011;11490;42.726;23.268;2023-02-13T12:29:45;12.77;;;8.98;;
22646;SDS011;11490;42.726;23.268;2023-02-13T12:38:45;14.88;;;8.52;;
22646;SDS011;11490;42.726;23.268;2023-02-13T12:41:18;11.68;;;6.75;;
22646;SDS011;11490;42.726;23.268;2023-02-13T12:43:58;10.52;;;5.60;;
22646;SDS011;11490;42.726;23.268;2023-02-13T13:01:11;12.77;;;7.65;;
22646;SDS011;11490;42.726;23.268;2023-02-13T13:03:45;12.55;;;7.47;;
22646;SDS011;11490;42.726;23.268;2023-02-13T13:09:19;16.00;;;7.55;;
22646;SDS011;11490;42.726;23.268;2023-02-13T13:14:47;15.63;;;7.00;;
22646;SDS011;11490;42.726;23.268;2023-02-13T13:17:51;11.07;;;6.93;;
22646;SDS011;11490;42.726;23.268;2023-02-13T13:23:27;13.90;;;6.35;;
22646;SDS011;11490;42.726;23.268;2023-02-13T13:26:12;9.65;;;6.72;;
22646;SDS011;11490;42.726;23.268;2023-02-13T13:28:48;11.00;;;6.43;;
22646;SDS011;11490;42.726;23.268;2023-02-13T13:31:16;15.95;;;7.95;;
22646;SDS011;11490;42.726;23.268;2023-02-13T13:33:44;11.32;;;7.05;;
22646;SDS011;11490;42.726;23.268;2023-02-13T13:36:13;12.07;;;7.32;;
22646;SDS011;11490;42.726;23.268;2023-02-13T13:39:01;13.43;;;7.57;;
22646;SDS011;11490;42.726;23.268;2023-02-13T13:41:51;9.77;;;6.03;;
22646;SDS011;11490;42.726;23.268;2023-02-13T13:50:40;14.65;;;7.68;;
22646;SDS011;11490;42.726;23.268;2023-02-13T13:53:18;14.85;;;7.95;;
22646;SDS011;11490;42.726;23.268;2023-02-13T13:58:22;14.80;;;8.45;;
22646;SDS011;11490;42.726;23.268;2023-02-13T14:03:39;13.95;;;9.57;;
22646;SDS011;11490;42.726;23.268;2023-02-13T14:06:11;14.60;;;7.45;;
22646;SDS011;11490;42.726;23.268;2023-02-13T14:11:23;15.73;;;8.68;;
22646;SDS011;11490;42.726;23.268;2023-02-13T14:13:52;11.05;;;7.22;;
22646;SDS011;11490;42.726;23.268;2023-02-13T14:19:05;13.88;;;8.75;;
22646;SDS011;11490;42.726;23.268;2023-02-13T14:21:47;12.10;;;7.28;;
22646;SDS011;11490;42.726;23.268;2023-02-13T14:24:12;13.80;;;7.63;;
22646;SDS011;11490;42.726;23.268;2023-02-13T14:26:38;16.42;;;8.23;;
22646;SDS011;11490;42.726;23.268;2023-02-13T14:31:57;12.63;;;7.25;;
22646;SDS011;11490;42.726;23.268;2023-02-13T14:34:30;12.50;;;8.23;;
22646;SDS011;11490;42.726;23.268;2023-02-13T14:37:04;15.48;;;9.88;;
22646;SDS011;11490;42.726;23.268;2023-02-13T14:42:35;20.35;;;11.25;;
22646;SDS011;11490;42.726;23.268;2023-02-13T14:45:02;16.65;;;10.07;;
22646;SDS011;11490;42.726;23.268;2023-02-13T14:50:07;21.23;;;11.75;;
22646;SDS011;11490;42.726;23.268;2023-02-13T14:52:42;20.05;;;11.75;;
22646;SDS011;11490;42.726;23.268;2023-02-13T14:55:15;14.70;;;9.38;;
22646;SDS011;11490;42.726;23.268;2023-02-13T14:58:04;18.80;;;8.90;;
22646;SDS011;11490;42.726;23.268;2023-02-13T15:00:49;14.32;;;9.13;;
22646;SDS011;11490;42.726;23.268;2023-02-13T15:06:23;13.80;;;8.40;;
22646;SDS011;11490;42.726;23.268;2023-02-13T15:08:53;12.38;;;7.65;;
22646;SDS011;11490;42.726;23.268;2023-02-13T15:11:36;14.73;;;8.23;;
22646;SDS011;11490;42.726;23.268;2023-02-13T15:16:51;12.77;;;9.02;;
22646;SDS011;11490;42.726;23.268;2023-02-13T15:19:20;12.60;;;8.07;;
22646;SDS011;11490;42.726;23.268;2023-02-13T15:21:50;13.38;;;8.63;;
22646;SDS011;11490;42.726;23.268;2023-02-13T15:24:23;10.00;;;7.28;;
22646;SDS011;11490;42.726;23.268;2023-02-13T15:26:55;19.23;;;8.60;;
22646;SDS011;11490;42.726;23.268;2023-02-13T15:29:25;17.58;;;8.55;;
22646;SDS011;11490;42.726;23.268;2023-02-13T15:31:51;13.60;;;7.72;;
22646;SDS011;11490;42.726;23.268;2023-02-13T15:34:20;16.52;;;9.38;;
22646;SDS011;11490;42.726;23.268;2023-02-13T15:36:52;17.42;;;8.57;;
22646;SDS011;11490;42.726;23.268;2023-02-13T15:39:22;11.88;;;6.97;;
22646;SDS011;11490;42.726;23.268;2023-02-13T15:41:50;18.02;;;9.98;;
22646;SDS011;11490;42.726;23.268;2023-02-13T15:44:37;16.90;;;9.63;;
22646;SDS011;11490;42.726;23.268;2023-02-13T15:47:17;12.38;;;8.77;;
22646;SDS011;11490;42.726;23.268;2023-02-13T15:49:50;24.08;;;11.18;;
22646;SDS011;11490;42.726;23.268;2023-02-13T15:52:21;13.18;;;8.95;;
22646;SDS011;11490;42.726;23.268;2023-02-13T15:54:55;21.05;;;10.45;;
22646;SDS011;11490;42.726;23.268;2023-02-13T15:57:21;20.23;;;11.00;;
22646;SDS011;11490;42.726;23.268;2023-02-13T15:59:50;24.33;;;13.20;;
22646;SDS011;11490;42.726;23.268;2023-02-13T16:02:21;22.42;;;13.02;;
22646;SDS011;11490;42.726;23.268;2023-02-13T16:04:53;28.33;;;13.13;;
22646;SDS011;11490;42.726;23.268;2023-02-13T16:07:19;21.10;;;10.02;;
22646;SDS011;11490;42.726;23.268;2023-02-13T16:09:46;16.92;;;10.52;;
22646;SDS011;11490;42.726;23.268;2023-02-13T16:12:22;22.50;;;9.02;;
22646;SDS011;11490;42.726;23.268;2023-02-13T16:14:53;12.43;;;8.73;;
22646;SDS011;11490;42.726;23.268;2023-02-13T16:17:30;16.67;;;9.50;;
22646;SDS011;11490;42.726;23.268;2023-02-13T16:20:02;13.70;;;8.55;;
22646;SDS011;11490;42.726;23.268;2023-02-13T16:22:47;14.43;;;8.80;;
22646;SDS011;11490;42.726;23.268;2023-02-13T16:28:25;18.98;;;10.18;;
22646;SDS011;11490;42.726;23.268;2023-02-13T16:30:52;18.70;;;11.73;;
22646;SDS011;11490;42.726;23.268;2023-02-13T16:33:26;24.55;;;10.48;;
22646;SDS011;11490;42.726;23.268;2023-02-13T16:36:00;19.30;;;10.60;;
22646;SDS011;11490;42.726;23.268;2023-02-13T16:38:43;16.73;;;10.75;;
22646;SDS011;11490;42.726;23.268;2023-02-13T16:46:40;14.50;;;9.43;;
22646;SDS011;11490;42.726;23.268;2023-02-13T16:49:25;19.50;;;11.90;;
22646;SDS011;11490;42.726;23.268;2023-02-13T16:54:37;21.23;;;11.63;;
22646;SDS011;11490;42.726;23.268;2023-02-13T17:02:13;20.08;;;10.48;;
22646;SDS011;11490;42.726;23.268;2023-02-13T17:07:29;16.33;;;9.65;;
22646;SDS011;11490;42.726;23.268;2023-02-13T17:10:03;17.88;;;10.13;;
22646;SDS011;11490;42.726;23.268;2023-02-13T17:12:37;19.52;;;10.60;;
22646;SDS011;11490;42.726;23.268;2023-02-13T17:15:03;25.63;;;11.27;;
22646;SDS011;11490;42.726;23.268;2023-02-13T17:17:31;13.95;;;11.38;;
22646;SDS011;11490;42.726;23.268;2023-02-13T17:19:57;15.98;;;10.50;;
22646;SDS011;11490;42.726;23.268;2023-02-13T17:22:32;18.45;;;9.98;;
22646;SDS011;11490;42.726;23.268;2023-02-13T17:25:01;21.77;;;10.60;;
22646;SDS011;11490;42.726;23.268;2023-02-13T17:27:29;21.23;;;10.75;;
22646;SDS011;11490;42.726;23.268;2023-02-13T17:29:54;15.18;;;9.77;;
22646;SDS011;11490;42.726;23.268;2023-02-13T17:32:20;17.02;;;9.68;;
22646;SDS011;11490;42.726;23.268;2023-02-13T17:34:48;16.33;;;10.13;;
22646;SDS011;11490;42.726;23.268;2023-02-13T17:40:33;16.95;;;11.13;;
22646;SDS011;11490;42.726;23.268;2023-02-13T17:43:04;22.10;;;11.73;;
22646;SDS011;11490;42.726;23.268;2023-02-13T17:45:33;18.65;;;10.40;;
22646;SDS011;11490;42.726;23.268;2023-02-13T17:48:01;14.80;;;9.93;;
22646;SDS011;11490;42.726;23.268;2023-02-13T17:50:29;16.63;;;9.80;;
22646;SDS011;11490;42.726;23.268;2023-02-13T17:52:56;18.70;;;11.48;;
22646;SDS011;11490;42.726;23.268;2023-02-13T17:55:26;15.73;;;10.80;;